Data Viewer
| City | State | Eastern Time | Source | Daily Temp Max | Daily Temp Min | Daily Dew Point Max | Daily Dew Point Min | Daily RH Max | Daily Min RH | Daily BP Max | Daily BP Min | Daily Precip | Daily Wind Max | Daily Wind Max Dir |
|---|---|---|---|---|---|---|---|---|---|---|---|---|---|---|
| West Cape May | NJ | 2026-04-05 | Mesonet | 64 | 51 | 59 | 40 | 99 | 63 | 0.90 | 22 | NNW | ||
| West Cape May | NJ | 2026-04-21 | Mesonet | 53 | 34 | 39 | 15 | 68 | 27 | 0.00 | 18 | SSE | ||
| West Cape May | NJ | 2026-05-04 | Mesonet | 63 | 52 | 54 | 38 | 88 | 56 | 0.00 | 17 | SSE | ||
| West Cape May | NJ | 2026-05-03 | Mesonet | 59 | 47 | 42 | 28 | 69 | 32 | 0.00 | 26 | N | ||
| West Cape May | NJ | 2026-05-02 | Mesonet | 59 | 50 | 48 | 34 | 85 | 45 | 0.00 | 22 | N | ||
| West Cape May | NJ | 2026-05-01 | Mesonet | 62 | 50 | 47 | 25 | 82 | 28 | 0.00 | 21 | NNE | ||
| West Cape May | NJ | 2026-04-30 | Mesonet | 67 | 48 | 54 | 42 | 96 | 48 | 0.08 | 27 | NNW | ||
| West Cape May | NJ | 2026-04-29 | Mesonet | 57 | 51 | 48 | 41 | 88 | 60 | 0.24 | 16 | SSE | ||
| West Cape May | NJ | 2026-04-28 | Mesonet | 62 | 40 | 49 | 30 | 96 | 31 | 0.00 | 10 | ESE | ||
| West Cape May | NJ | 2026-04-27 | Mesonet | 63 | 42 | 45 | 35 | 91 | 40 | 0.00 | 17 | ESE | ||
| West Cape May | NJ | 2026-04-26 | Mesonet | 50 | 43 | 45 | 40 | 92 | 74 | 0.00 | 32 | NE | ||
| West Cape May | NJ | 2026-04-25 | Mesonet | 53 | 48 | 50 | 43 | 91 | 73 | 0.17 | 33 | E | ||
| West Cape May | NJ | 2026-04-24 | Mesonet | 70 | 49 | 56 | 34 | 96 | 28 | 0.00 | 17 | E | ||
| West Cape May | NJ | 2026-04-23 | Mesonet | 63 | 48 | 53 | 46 | 93 | 65 | 0.00 | 13 | E | ||
| West Cape May | NJ | 2026-04-22 | Mesonet | 64 | 49 | 52 | 38 | 89 | 60 | 0.00 | 21 | S | ||
| West Cape May | NJ | 2026-04-20 | Mesonet | 55 | 37 | 42 | 21 | 86 | 32 | 0.00 | 24 | N | ||
| West Cape May | NJ | 2026-04-06 | Mesonet | 57 | 46 | 45 | 30 | 87 | 39 | 0.00 | 30 | N | ||
| West Cape May | NJ | 2026-04-19 | Mesonet | 56 | 46 | 55 | 30 | 98 | 44 | 0.03 | 34 | NW | ||
| West Cape May | NJ | 2026-04-18 | Mesonet | 64 | 50 | 57 | 49 | 98 | 76 | 0.00 | 21 | SE | ||
| West Cape May | NJ | 2026-04-17 | Mesonet | 79 | 58 | 62 | 54 | 89 | 44 | 0.00 | 16 | ESE | ||
| West Cape May | NJ | 2026-04-16 | Mesonet | 79 | 57 | 62 | 53 | 90 | 51 | 0.00 | 16 | S | ||
| West Cape May | NJ | 2026-04-15 | Mesonet | 82 | 57 | 64 | 53 | 89 | 49 | 0.00 | 17 | SSE | ||
| West Cape May | NJ | 2026-04-14 | Mesonet | 73 | 54 | 59 | 51 | 90 | 56 | 0.00 | 14 | S | ||
| West Cape May | NJ | 2026-04-13 | Mesonet | 76 | 53 | 58 | 48 | 93 | 49 | 0.00 | 20 | W | ||
| West Cape May | NJ | 2026-04-12 | Mesonet | 54 | 41 | 49 | 34 | 97 | 51 | 0.00 | 20 | E | ||
| West Cape May | NJ | 2026-04-11 | Mesonet | 64 | 47 | 52 | 39 | 89 | 43 | 0.00 | 21 | N | ||
| West Cape May | NJ | 2026-04-10 | Mesonet | 53 | 36 | 46 | 35 | 98 | 73 | 0.00 | 18 | SSE | ||
| West Cape May | NJ | 2026-04-09 | Mesonet | 50 | 36 | 42 | 31 | 91 | 65 | 0.00 | 18 | E | ||
| West Cape May | NJ | 2026-04-08 | Mesonet | 44 | 31 | 33 | 15 | 79 | 38 | 0.00 | 23 | NE | ||
| West Cape May | NJ | 2026-04-07 | Mesonet | 56 | 41 | 45 | 17 | 96 | 27 | 0.00 | 28 | N | ||
| West Cape May | NJ | 2026-05-05 | Mesonet | 68 | 56 | 57 | 51 | 88 | 62 | 0.00 | 22 | SE |
data collection created in 0.0088491439819336 (queried in 0.002725) rendered in: 5.9127807617188E-5

